Time;durP1;ratioP1;P1;durP2;ratioP2;P2;SDS_P1;SDS_P2;PMS_P1;PMS_P2;Temp;Humidity;BMP_temperature;BMP_pressure;BME280_temperature;BME280_humidity;BME280_pressure;Samples;Min_cycle;Max_cycle;Signal;HPM_P1;HPM_P2
2024/03/18 00:00:16;;;;;;;57.55;23.80;;;;;;;8.96;100.00;101633.78;5075213;28;20024;-79
2024/03/18 00:02:42;;;;;;;57.67;22.70;;;;;;;8.96;100.00;101635.59;5094054;28;20062;-78
2024/03/18 00:05:11;;;;;;;59.53;24.27;;;;;;;8.94;100.00;101632.19;5093791;28;20045;-80
2024/03/18 00:07:36;;;;;;;56.33;25.77;;;;;;;8.92;100.00;101631.47;5093524;28;20394;-79
2024/03/18 00:10:02;;;;;;;59.85;25.15;;;;;;;8.91;100.00;101635.06;5093552;28;20077;-79
2024/03/18 00:12:28;;;;;;;55.65;24.25;;;;;;;8.87;100.00;101636.22;5093402;28;20134;-79
2024/03/18 00:14:54;;;;;;;64.95;26.45;;;;;;;8.80;100.00;101626.06;5093402;28;20020;-91
2024/03/18 00:17:20;;;;;;;59.80;24.42;;;;;;;8.75;100.00;101630.84;5093627;28;20107;-79
2024/03/18 00:19:45;;;;;;;61.65;24.65;;;;;;;8.66;100.00;101634.16;5093524;28;20113;-80
2024/03/18 00:22:11;;;;;;;59.10;24.42;;;;;;;8.54;100.00;101627.91;5093083;28;20020;-78
2024/03/18 00:24:36;;;;;;;62.33;24.58;;;;;;;8.45;100.00;101634.69;5093343;28;20468;-78
2024/03/18 00:27:01;;;;;;;61.20;23.33;;;;;;;8.42;100.00;101626.91;5093369;28;20031;-79
2024/03/18 00:29:27;;;;;;;63.42;24.05;;;;;;;8.46;100.00;101630.22;5093090;28;20098;-78
2024/03/18 00:31:53;;;;;;;54.58;22.83;;;;;;;8.51;100.00;101629.88;5093557;28;20051;-80
2024/03/18 00:34:18;;;;;;;54.17;22.08;;;;;;;8.56;100.00;101625.97;5075140;28;20050;-80
2024/03/18 00:36:44;;;;;;;48.95;21.00;;;;;;;8.59;100.00;101620.44;5093114;28;20405;-81
2024/03/18 00:39:11;;;;;;;47.00;20.52;;;;;;;8.62;100.00;101616.75;5093184;28;20330;-81
2024/03/18 00:41:45;;;;;;;59.78;21.00;;;;;;;8.64;100.00;101618.34;5092872;28;20527;-79
2024/03/18 00:44:14;;;;;;;56.95;20.83;;;;;;;8.67;100.00;101611.09;5092851;28;20069;-80
2024/03/18 00:46:41;;;;;;;44.85;19.33;;;;;;;8.68;100.00;101616.31;5092777;28;20024;-81
2024/03/18 00:49:06;;;;;;;50.35;19.83;;;;;;;8.68;100.00;101611.00;5073762;28;20483;-82
2024/03/18 00:51:32;;;;;;;45.00;19.02;;;;;;;8.69;100.00;101612.72;5092731;28;20051;-81
2024/03/18 00:53:57;;;;;;;47.17;19.45;;;;;;;8.69;100.00;101609.19;5092974;28;20051;-81
2024/03/18 00:56:22;;;;;;;45.75;18.70;;;;;;;8.68;100.00;101603.03;5092858;28;20031;-80
2024/03/18 00:58:48;;;;;;;48.03;17.75;;;;;;;8.72;100.00;101606.31;5074345;28;20047;-80
2024/03/18 01:01:13;;;;;;;45.30;19.20;;;;;;;8.73;100.00;101598.28;5074222;28;20032;-81
2024/03/18 01:03:38;;;;;;;41.30;18.02;;;;;;;8.74;100.00;101593.81;5057827;28;20024;-80
2024/03/18 01:06:04;;;;;;;40.70;17.80;;;;;;;8.75;100.00;101598.16;5092402;28;20032;-80
2024/03/18 01:08:30;;;;;;;44.47;17.45;;;;;;;8.75;100.00;101604.31;5092533;28;20352;-80
2024/03/18 01:10:55;;;;;;;45.60;18.73;;;;;;;8.76;100.00;101602.50;5092502;28;20046;-79
2024/03/18 01:13:21;;;;;;;51.92;18.88;;;;;;;8.74;100.00;101599.13;5092402;28;20448;-80
2024/03/18 01:15:47;;;;;;;38.22;17.17;;;;;;;8.75;100.00;101603.47;5074253;28;20020;-80
2024/03/18 01:18:13;;;;;;;47.33;18.48;;;;;;;8.74;100.00;101593.81;5074715;28;20440;-81
2024/03/18 01:20:38;;;;;;;47.17;18.15;;;;;;;8.73;100.00;101597.41;5092190;28;20113;-80
2024/03/18 01:23:07;;;;;;;40.63;18.35;;;;;;;8.73;100.00;101592.97;5092486;28;20114;-80
2024/03/18 01:25:34;;;;;;;37.42;17.10;;;;;;;8.74;100.00;101593.81;5073871;28;20016;-80
2024/03/18 01:27:59;;;;;;;44.30;19.00;;;;;;;8.75;100.00;101590.22;5092604;28;20035;-80
2024/03/18 01:30:25;;;;;;;45.17;18.10;;;;;;;8.74;100.00;101583.19;5092113;28;20020;-80
2024/03/18 01:32:50;;;;;;;45.58;17.83;;;;;;;8.74;100.00;101592.00;5092554;28;20024;-80
2024/03/18 01:35:16;;;;;;;48.35;18.60;;;;;;;8.74;100.00;101580.53;5092141;28;20031;-80
2024/03/18 01:37:43;;;;;;;53.60;18.00;;;;;;;8.71;100.00;101578.09;5092460;28;20024;-80
2024/03/18 01:40:12;;;;;;;44.58;18.10;;;;;;;8.70;100.00;101579.88;5091706;28;20101;-80
2024/03/18 01:42:42;;;;;;;39.78;17.55;;;;;;;8.73;100.00;101581.50;5091828;28;20043;-80
2024/03/18 01:45:08;;;;;;;37.42;16.73;;;;;;;8.73;100.00;101584.16;5091771;28;20436;-80
2024/03/18 01:47:34;;;;;;;42.90;17.15;;;;;;;8.73;100.00;101578.84;5091681;28;20032;-80
2024/03/18 01:50:00;;;;;;;43.95;18.13;;;;;;;8.73;100.00;101582.34;5091696;28;20073;-80
2024/03/18 01:52:26;;;;;;;33.90;16.55;;;;;;;8.73;100.00;101578.84;5091548;28;20072;-80
2024/03/18 01:54:51;;;;;;;39.03;17.60;;;;;;;8.72;100.00;101575.34;5073535;28;20107;-80
2024/03/18 01:57:17;;;;;;;40.17;17.27;;;;;;;8.72;100.00;101585.09;5091722;28;20051;-80
2024/03/18 01:59:42;;;;;;;40.67;17.30;;;;;;;8.70;100.00;101569.28;5091972;28;20165;-80
2024/03/18 02:02:08;;;;;;;43.10;17.15;;;;;;;8.69;100.00;101567.59;5091702;28;20404;-82
2024/03/18 02:04:34;;;;;;;40.88;16.02;;;;;;;8.69;100.00;101570.25;5091608;28;20036;-80
2024/03/18 02:06:59;;;;;;;43.33;16.95;;;;;;;8.69;100.00;101572.03;5091644;28;20019;-80
2024/03/18 02:09:25;;;;;;;39.92;17.63;;;;;;;8.68;100.00;101559.75;5091948;28;20456;-80
2024/03/18 02:11:51;;;;;;;37.28;17.08;;;;;;;8.67;100.00;101558.88;5091466;28;20044;-80
2024/03/18 02:14:17;;;;;;;35.78;16.38;;;;;;;8.68;100.00;101555.28;5091743;28;20443;-79
2024/03/18 02:16:43;;;;;;;40.80;16.98;;;;;;;8.68;100.00;101563.25;5092012;28;20032;-80
2024/03/18 02:19:09;;;;;;;36.30;17.88;;;;;;;8.68;100.00;101560.59;5073173;28;20415;-80
2024/03/18 02:21:35;;;;;;;43.58;17.65;;;;;;;8.70;100.00;101556.00;5091307;28;20146;-80
2024/03/18 02:24:03;;;;;;;43.83;19.00;;;;;;;8.71;100.00;101554.22;5091343;28;20020;-80
2024/03/18 02:26:30;;;;;;;31.30;16.58;;;;;;;8.72;100.00;101548.81;5074210;28;20027;-80
2024/03/18 02:28:56;;;;;;;40.47;18.65;;;;;;;8.71;100.00;101544.44;5091302;28;20496;-80
2024/03/18 02:31:21;;;;;;;46.10;17.40;;;;;;;8.71;100.00;101544.44;5091187;28;20024;-80
2024/03/18 02:33:47;;;;;;;36.55;16.10;;;;;;;8.72;100.00;101547.94;5091212;28;20077;-79
2024/03/18 02:36:12;;;;;;;37.30;16.33;;;;;;;8.72;100.00;101550.59;5091158;28;20371;-82
2024/03/18 02:38:37;;;;;;;39.10;16.90;;;;;;;8.72;100.00;101540.84;5091248;28;20111;-79
2024/03/18 02:41:03;;;;;;;41.35;16.08;;;;;;;8.72;100.00;101539.97;5091201;28;20024;-79
2024/03/18 02:43:28;;;;;;;34.55;16.10;;;;;;;8.70;100.00;101532.13;5091137;28;20024;-80
2024/03/18 02:45:54;;;;;;;36.97;16.25;;;;;;;8.72;100.00;101530.25;5091401;28;20024;-79
2024/03/18 02:48:19;;;;;;;35.70;16.17;;;;;;;8.71;100.00;101525.03;5091018;28;20024;-80
2024/03/18 02:50:45;;;;;;;37.75;16.02;;;;;;;8.69;100.00;101530.47;5091283;28;20016;-80
2024/03/18 02:53:10;;;;;;;33.38;14.85;;;;;;;8.71;100.00;101530.34;5091077;28;20020;-80
2024/03/18 02:55:35;;;;;;;31.50;14.68;;;;;;;8.71;100.00;101528.53;5091056;28;20112;-80
2024/03/18 02:58:01;;;;;;;37.05;15.07;;;;;;;8.70;100.00;101529.47;5090987;28;20115;-80
2024/03/18 03:00:27;;;;;;;32.20;14.60;;;;;;;8.70;100.00;101524.19;5091161;28;20024;-79
2024/03/18 03:02:52;;;;;;;36.05;14.65;;;;;;;8.72;100.00;101527.59;5072806;28;20029;-79
2024/03/18 03:05:17;;;;;;;33.72;14.55;;;;;;;8.71;100.00;101535.66;5090842;28;20060;-81
2024/03/18 03:07:43;;;;;;;41.58;13.90;;;;;;;8.72;100.00;101538.19;5090931;28;20035;-79
2024/03/18 03:10:09;;;;;;;41.10;14.68;;;;;;;8.72;100.00;101534.69;5091148;28;20024;-80
2024/03/18 03:12:35;;;;;;;31.75;14.10;;;;;;;8.72;100.00;101524.06;5094444;28;20056;-80
2024/03/18 03:15:00;;;;;;;32.45;15.23;;;;;;;8.72;100.00;101526.72;5094538;28;20060;-79
2024/03/18 03:17:26;;;;;;;36.28;15.63;;;;;;;8.72;100.00;101532.91;5094736;28;20226;-79
2024/03/18 03:19:52;;;;;;;33.47;14.48;;;;;;;8.73;100.00;101531.06;5094385;28;20016;-79
2024/03/18 03:22:20;;;;;;;35.63;15.30;;;;;;;8.73;100.00;101533.72;5094241;28;20050;-80
2024/03/18 03:24:47;;;;;;;35.92;14.05;;;;;;;8.71;100.00;101525.03;5094365;28;20347;-80
2024/03/18 03:27:13;;;;;;;29.38;14.20;;;;;;;8.74;100.00;101530.97;5094620;28;20032;-80
2024/03/18 03:29:38;;;;;;;36.22;14.07;;;;;;;8.73;100.00;101528.44;5094255;28;20387;-79
2024/03/18 03:32:04;;;;;;;27.15;13.85;;;;;;;8.72;100.00;101532.03;5094151;28;20344;-79
2024/03/18 03:34:29;;;;;;;35.92;13.57;;;;;;;8.73;100.00;101533.72;5094107;28;20016;-80
2024/03/18 03:36:55;;;;;;;34.88;13.80;;;;;;;8.72;100.00;101530.25;5094288;28;20135;-79
2024/03/18 03:39:22;;;;;;;35.35;14.80;;;;;;;8.71;100.00;101531.19;5093979;28;20436;-81
2024/03/18 03:41:47;;;;;;;35.72;14.00;;;;;;;8.71;100.00;101539.16;5093838;28;20103;-79
2024/03/18 03:44:14;;;;;;;31.83;13.73;;;;;;;8.71;100.00;101539.16;5094294;28;20051;-79
2024/03/18 03:46:39;;;;;;;30.95;14.13;;;;;;;8.72;100.00;101535.53;5093930;28;20490;-80
2024/03/18 03:49:05;;;;;;;38.83;14.63;;;;;;;8.71;100.00;101541.81;5093890;28;20023;-80
2024/03/18 03:51:30;;;;;;;28.05;14.13;;;;;;;8.72;100.00;101546.16;5093827;28;20019;-80
2024/03/18 03:53:57;;;;;;;50.35;15.85;;;;;;;8.73;100.00;101550.53;5094205;28;20036;-79
2024/03/18 03:56:23;;;;;;;30.52;14.65;;;;;;;8.73;100.00;101557.59;5093964;28;20050;-89
2024/03/18 03:58:50;;;;;;;37.08;14.68;;;;;;;8.73;100.00;101554.97;5094123;28;20108;-80
2024/03/18 04:01:17;;;;;;;37.72;15.25;;;;;;;8.73;100.00;101555.81;5094004;28;20427;-79
2024/03/18 04:03:42;;;;;;;34.95;14.38;;;;;;;8.72;100.00;101556.78;5093933;28;20023;-79
2024/03/18 04:06:07;;;;;;;34.97;15.55;;;;;;;8.70;100.00;101561.31;5093885;28;20024;-79
2024/03/18 04:08:32;;;;;;;33.65;14.43;;;;;;;8.70;100.00;101563.13;5093795;28;20112;-79
2024/03/18 04:10:58;;;;;;;36.72;15.52;;;;;;;8.71;100.00;101560.38;5093716;28;20028;-81
2024/03/18 04:13:24;;;;;;;32.22;15.38;;;;;;;8.72;100.00;101570.03;5094041;28;20024;-80
2024/03/18 04:15:49;;;;;;;38.40;16.05;;;;;;;8.72;100.00;101566.53;5094843;28;20028;-79
2024/03/18 04:18:16;;;;;;;34.90;15.75;;;;;;;8.72;100.00;101564.72;5076843;28;20097;-80
2024/03/18 04:20:42;;;;;;;37.72;14.85;;;;;;;8.72;100.00;101555.91;5094692;28;20079;-79
2024/03/18 04:23:07;;;;;;;36.65;16.08;;;;;;;8.72;100.00;101564.72;5093543;28;20028;-80
2024/03/18 04:25:36;;;;;;;30.98;14.32;;;;;;;8.73;100.00;101566.44;5094599;28;20024;-81
2024/03/18 04:28:02;;;;;;;37.95;15.57;;;;;;;8.72;100.00;101563.88;5094537;28;20042;-80
2024/03/18 04:30:31;;;;;;;39.08;14.73;;;;;;;8.71;100.00;101562.19;5094584;28;20375;-80
2024/03/18 04:32:57;;;;;;;38.70;14.98;;;;;;;8.72;100.00;101571.81;5094779;28;20024;-80
2024/03/18 04:35:22;;;;;;;41.47;15.55;;;;;;;8.74;100.00;101567.28;5076486;28;20032;-80
2024/03/18 04:37:55;;;;;;;39.83;16.25;;;;;;;8.75;100.00;101571.63;5094366;28;20028;-80
2024/03/18 04:40:22;;;;;;;43.60;16.00;;;;;;;8.75;100.00;101567.16;5094555;28;20073;-81
2024/03/18 04:42:47;;;;;;;42.08;16.02;;;;;;;8.73;100.00;101566.44;5094220;28;20039;-80
2024/03/18 04:45:17;;;;;;;43.33;16.50;;;;;;;8.72;100.00;101572.69;5094271;28;20028;-79
2024/03/18 04:47:45;;;;;;;47.47;15.93;;;;;;;8.72;100.00;101561.22;5094745;28;20445;-80
2024/03/18 04:50:12;;;;;;;36.13;16.45;;;;;;;8.72;100.00;101570.03;5094232;28;20055;-80
2024/03/18 04:52:38;;;;;;;38.35;15.57;;;;;;;8.73;100.00;101577.06;5094179;28;20044;-79
2024/03/18 04:55:05;;;;;;;39.20;16.90;;;;;;;8.73;100.00;101571.75;5094361;28;20016;-80
2024/03/18 04:57:32;;;;;;;35.20;15.70;;;;;;;8.72;100.00;101570.03;5094304;28;20024;-81
2024/03/18 04:59:57;;;;;;;37.25;15.75;;;;;;;8.71;100.00;101573.63;5094248;28;20046;-79
2024/03/18 05:02:22;;;;;;;44.70;16.60;;;;;;;8.70;100.00;101577.25;5093928;28;20020;-80
2024/03/18 05:04:48;;;;;;;40.95;15.50;;;;;;;8.71;100.00;101581.59;5093867;28;20042;-80
2024/03/18 05:07:14;;;;;;;41.70;14.70;;;;;;;8.70;100.00;101582.53;5093935;28;20344;-80
2024/03/18 05:09:39;;;;;;;40.58;14.75;;;;;;;8.70;100.00;101587.00;5093918;28;20093;-79
2024/03/18 05:12:05;;;;;;;39.72;15.32;;;;;;;8.69;100.00;101577.34;5075511;28;20479;-79
2024/03/18 05:14:30;;;;;;;44.95;15.80;;;;;;;8.68;100.00;101581.81;5094545;28;20028;-79
2024/03/18 05:16:56;;;;;;;46.90;15.73;;;;;;;8.65;100.00;101576.72;5093566;28;20118;-80
2024/03/18 05:19:23;;;;;;;49.40;16.05;;;;;;;8.64;100.00;101573.25;5093968;28;20060;-79
2024/03/18 05:21:49;;;;;;;45.97;15.43;;;;;;;8.62;100.00;101569.81;5093508;28;20074;-80
2024/03/18 05:24:14;;;;;;;48.25;18.23;;;;;;;8.63;100.00;101574.19;5093894;28;20031;-80
2024/03/18 05:26:40;;;;;;;38.33;14.63;;;;;;;8.63;100.00;101570.69;5075363;28;20028;-80
2024/03/18 05:29:05;;;;;;;48.53;14.52;;;;;;;8.63;100.00;101573.34;5093839;28;20103;-80
2024/03/18 05:31:31;;;;;;;50.22;14.82;;;;;;;8.63;100.00;101571.53;5075306;28;20069;-79
2024/03/18 05:33:56;;;;;;;39.58;14.38;;;;;;;8.61;100.00;101569.94;5093280;28;20072;-79
2024/03/18 05:36:22;;;;;;;46.38;13.73;;;;;;;8.63;100.00;101574.19;5094211;28;20016;-79
2024/03/18 05:38:47;;;;;;;37.28;13.23;;;;;;;8.62;100.00;101576.94;5093559;28;20063;-79
2024/03/18 05:41:12;;;;;;;52.15;13.70;;;;;;;8.61;100.00;101572.59;5075223;28;20168;-79
2024/03/18 05:43:37;;;;;;;49.08;13.80;;;;;;;8.62;100.00;101572.47;5093561;28;20153;-80
2024/03/18 05:46:03;;;;;;;49.53;12.57;;;;;;;8.59;100.00;101564.75;5093463;28;20055;-79
2024/03/18 05:48:28;;;;;;;44.75;12.65;;;;;;;8.60;100.00;101563.78;5093307;28;20016;-79
2024/03/18 05:50:55;;;;;;;54.10;13.30;;;;;;;8.62;100.00;101566.34;5093478;28;20073;-80
2024/03/18 05:53:20;;;;;;;46.65;12.23;;;;;;;8.62;100.00;101564.53;5075286;28;20058;-79
2024/03/18 05:55:45;;;;;;;45.92;12.50;;;;;;;8.61;100.00;101560.19;5093138;28;20110;-79
2024/03/18 05:58:11;;;;;;;53.00;12.50;;;;;;;8.61;100.00;101556.66;5093190;28;20048;-80
2024/03/18 06:00:37;;;;;;;41.38;10.93;;;;;;;8.64;100.00;101557.31;5093010;28;20051;-79
2024/03/18 06:03:03;;;;;;;30.02;11.02;;;;;;;8.67;100.00;101561.53;5093159;28;20430;-80
2024/03/18 06:05:29;;;;;;;40.10;11.70;;;;;;;8.65;100.00;101561.66;5093014;28;20047;-80
2024/03/18 06:07:54;;;;;;;46.53;11.88;;;;;;;8.65;100.00;101569.59;5092863;28;20032;-80
2024/03/18 06:10:20;;;;;;;43.47;11.68;;;;;;;8.69;100.00;101567.59;5092955;28;20020;-80
2024/03/18 06:12:45;;;;;;;37.63;10.98;;;;;;;8.70;100.00;101573.75;5092888;28;20059;-80
2024/03/18 06:15:10;;;;;;;32.22;10.82;;;;;;;8.73;100.00;101569.09;5074945;28;20353;-79
2024/03/18 06:17:36;;;;;;;45.08;11.07;;;;;;;8.73;100.00;101577.06;5093132;28;20478;-79
2024/03/18 06:20:03;;;;;;;38.88;10.60;;;;;;;8.75;100.00;101568.97;5092786;28;20416;-80
2024/03/18 06:22:37;;;;;;;37.38;9.32;;;;;;;8.77;100.00;101580.31;5092818;28;20460;-79
2024/03/18 06:27:48;;;;;;;35.90;9.85;;;;;;;8.85;100.00;101585.06;5093293;28;20043;-80
2024/03/18 06:30:14;;;;;;;29.83;8.10;;;;;;;8.83;100.00;101585.19;5092756;28;20020;-79
2024/03/18 06:32:39;;;;;;;30.83;8.27;;;;;;;8.82;100.00;101581.69;5092793;28;20017;-80
2024/03/18 06:35:05;;;;;;;34.92;8.75;;;;;;;8.83;100.00;101582.53;5092854;28;20027;-79
2024/03/18 06:37:32;;;;;;;31.73;8.70;;;;;;;8.83;100.00;101586.03;5092809;28;20016;-79
2024/03/18 06:39:57;;;;;;;34.72;8.32;;;;;;;8.82;100.00;101583.47;5092609;28;20034;-79
2024/03/18 06:42:23;;;;;;;44.17;7.40;;;;;;;8.82;100.00;101599.41;5092819;28;20107;-79
2024/03/18 06:44:48;;;;;;;31.63;6.95;;;;;;;8.85;100.00;101585.06;5092947;28;20066;-79
2024/03/18 06:47:14;;;;;;;39.25;7.78;;;;;;;8.86;100.00;101594.75;5095828;28;20102;-78
2024/03/18 06:49:39;;;;;;;39.72;7.18;;;;;;;8.88;100.00;101598.13;5096759;28;20062;-79
2024/03/18 06:52:04;;;;;;;17.75;6.47;;;;;;;8.90;100.00;101601.53;5096680;28;20047;-79
2024/03/18 06:54:30;;;;;;;28.67;7.50;;;;;;;8.94;100.00;101609.16;5097221;28;20024;-79
2024/03/18 06:56:55;;;;;;;31.85;6.35;;;;;;;9.01;100.00;101606.91;5078513;28;20498;-79
2024/03/18 06:59:20;;;;;;;35.33;7.25;;;;;;;9.08;100.00;101618.78;5096350;28;20459;-79
2024/03/18 07:01:46;;;;;;;35.58;6.35;;;;;;;9.11;100.00;101613.25;5096496;28;20368;-79
2024/03/18 07:04:11;;;;;;;36.90;6.90;;;;;;;9.11;100.00;101621.22;5096151;28;20459;-79
2024/03/18 07:06:38;;;;;;;29.13;6.60;;;;;;;9.14;100.00;101626.31;5096016;28;20063;-79
2024/03/18 07:09:03;;;;;;;28.85;6.03;;;;;;;9.15;100.00;101621.84;5096064;28;20479;-79
2024/03/18 07:11:28;;;;;;;33.78;6.03;;;;;;;9.16;100.00;101616.41;5074399;28;20049;-79
2024/03/18 07:13:54;;;;;;;31.42;5.75;;;;;;;9.20;100.00;101622.38;5074326;28;20021;-80
2024/03/18 07:16:21;;;;;;;26.73;5.82;;;;;;;9.22;100.00;101622.25;5075804;28;20032;-79
2024/03/18 07:18:47;;;;;;;28.55;5.03;;;;;;;9.20;100.00;101625.03;5075959;28;20045;-80
2024/03/18 07:21:13;;;;;;;24.58;5.20;;;;;;;9.25;100.00;101624.69;5075531;28;20109;-79
2024/03/18 07:23:39;;;;;;;28.63;6.82;;;;;;;9.29;100.00;101621.69;5075840;28;20032;-79
2024/03/18 07:26:05;;;;;;;24.92;4.88;;;;;;;9.36;100.00;101627.41;5074163;28;20467;-80
2024/03/18 07:28:33;;;;;;;27.92;5.85;;;;;;;9.40;100.00;101622.72;5075552;28;20108;-80
2024/03/18 07:31:03;;;;;;;29.05;5.13;;;;;;;9.49;100.00;101622.03;5075406;28;20028;-80
2024/03/18 07:33:29;;;;;;;28.63;4.85;;;;;;;9.56;100.00;101614.47;5075432;28;20166;-80
2024/03/18 07:35:54;;;;;;;25.08;5.43;;;;;;;9.66;100.00;101623.47;5075464;28;20536;-81
2024/03/18 07:38:19;;;;;;;31.83;5.28;;;;;;;9.75;100.00;101613.94;5075442;28;20025;-80
2024/03/18 07:40:45;;;;;;;22.25;5.00;;;;;;;9.95;100.00;101609.78;5075239;28;20354;-79
2024/03/18 07:43:13;;;;;;;25.85;4.50;;;;;;;10.07;100.00;101608.84;5075290;28;20024;-77
2024/03/18 07:45:39;;;;;;;35.90;5.45;;;;;;;10.18;100.00;101616.00;5075492;28;20035;-80
2024/03/18 07:48:05;;;;;;;21.88;3.90;;;;;;;10.26;100.00;101615.44;5075085;28;20029;-78
2024/03/18 07:50:35;;;;;;;25.60;4.97;;;;;;;10.30;100.00;101607.09;5073817;28;20357;-79
2024/03/18 07:53:04;;;;;;;18.25;3.80;;;;;;;10.35;100.00;101607.63;5075389;28;20028;-78
2024/03/18 07:55:29;;;;;;;19.40;3.92;;;;;;;10.44;100.00;101614.03;5075336;28;20020;-77
2024/03/18 07:57:55;;;;;;;20.65;3.60;;;;;;;10.53;100.00;101617.81;5075017;28;20058;-77
2024/03/18 08:00:20;;;;;;;19.00;3.72;;;;;;;10.62;100.00;101601.09;5075282;28;20048;-77
2024/03/18 08:02:46;;;;;;;22.15;3.60;;;;;;;10.68;100.00;101605.94;5074759;28;20376;-79
2024/03/18 08:05:11;;;;;;;14.95;3.08;;;;;;;10.71;100.00;101605.69;5074878;28;20419;-78
2024/03/18 08:07:37;;;;;;;18.55;2.92;;;;;;;10.72;100.00;101604.75;5074831;28;20371;-79
2024/03/18 08:10:03;;;;;;;11.50;3.22;;;;;;;10.77;100.00;101617.69;5074576;28;20073;-79
2024/03/18 08:12:28;;;;;;;14.32;3.40;;;;;;;10.96;100.00;101613.53;5087877;28;20102;-78
2024/03/18 08:14:53;;;;;;;16.75;3.38;;;;;;;11.25;100.00;101612.03;5095441;28;20035;-78
2024/03/18 08:17:20;;;;;;;12.93;2.70;;;;;;;11.49;100.00;101626.16;5095066;28;20063;-78
2024/03/18 08:19:45;;;;;;;12.52;2.60;;;;;;;11.67;100.00;101629.13;5076759;28;20019;-77
2024/03/18 08:22:16;;;;;;;13.73;3.28;;;;;;;11.76;100.00;101633.69;5094921;28;20360;-77
2024/03/18 08:24:48;;;;;;;14.10;2.95;;;;;;;11.71;100.00;101633.25;5094650;28;20020;-77
2024/03/18 08:27:14;;;;;;;9.20;2.53;;;;;;;11.83;100.00;101632.22;5094879;28;20103;-78
2024/03/18 08:29:40;;;;;;;16.48;2.45;;;;;;;11.95;100.00;101633.88;5094187;28;20024;-77
2024/03/18 08:32:06;;;;;;;11.43;2.42;;;;;;;12.02;100.00;101634.22;5075866;28;20031;-78
2024/03/18 08:34:31;;;;;;;13.65;2.80;;;;;;;12.06;100.00;101646.34;5094051;28;20020;-77
2024/03/18 08:36:59;;;;;;;12.20;2.50;;;;;;;11.97;100.00;101645.28;5094073;28;20038;-77
2024/03/18 08:39:25;;;;;;;16.75;2.60;;;;;;;11.87;100.00;101652.31;5094340;28;20020;-82
2024/03/18 08:41:50;;;;;;;13.63;2.47;;;;;;;11.83;100.00;101654.38;5075842;28;20390;-77
2024/03/18 08:44:16;;;;;;;10.75;2.45;;;;;;;11.63;100.00;101649.88;5075623;28;20031;-77
2024/03/18 08:46:44;;;;;;;14.23;2.20;;;;;;;11.54;100.00;101645.28;5093910;28;20023;-77
2024/03/18 08:49:09;;;;;;;13.40;2.83;;;;;;;11.55;100.00;101653.16;5094001;28;20031;-77
2024/03/18 08:51:35;;;;;;;10.85;2.08;;;;;;;11.64;100.00;101651.56;5093734;28;20410;-79
2024/03/18 08:54:00;;;;;;;11.45;2.20;;;;;;;11.73;100.00;101658.78;5075912;28;20024;-76
2024/03/18 08:56:27;;;;;;;10.38;2.22;;;;;;;11.79;100.00;101660.97;5093617;28;20020;-78
2024/03/18 08:58:52;;;;;;;17.08;2.20;;;;;;;11.91;100.00;101667.09;5076072;28;20024;-76
2024/03/18 09:01:18;;;;;;;11.55;2.25;;;;;;;12.02;100.00;101668.03;5093711;28;20409;-76
2024/03/18 09:03:43;;;;;;;12.95;2.70;;;;;;;12.34;100.00;101668.00;5093511;28;20383;-76
2024/03/18 09:06:08;;;;;;;9.60;2.40;;;;;;;12.55;100.00;101673.31;5093283;28;20425;-79
2024/03/18 09:08:34;;;;;;;11.13;2.47;;;;;;;12.65;100.00;101668.88;5092859;28;20031;-76
2024/03/18 09:10:59;;;;;;;11.15;2.10;;;;;;;12.68;100.00;101675.78;5093709;28;20046;-77
2024/03/18 09:13:25;;;;;;;11.70;2.15;;;;;;;12.61;100.00;101666.63;5094250;28;20036;-77
2024/03/18 09:15:50;;;;;;;13.15;2.05;;;;;;;12.67;100.00;101669.63;5094010;28;20053;-77
2024/03/18 09:18:16;;;;;;;11.90;2.20;;;;;;;12.62;100.00;101671.81;5093871;28;20024;-77
2024/03/18 09:20:42;;;;;;;12.07;2.25;;;;;;;12.59;100.00;101674.75;5093875;28;20035;-75
2024/03/18 09:23:07;;;;;;;14.45;2.75;;;;;;;12.74;100.00;101663.75;5093325;28;20024;-76
2024/03/18 09:25:33;;;;;;;8.40;2.53;;;;;;;12.95;100.00;101674.38;5093753;28;20024;-76
2024/03/18 09:27:59;;;;;;;8.90;2.22;;;;;;;13.16;100.00;101668.97;5093749;28;20398;-76
2024/03/18 09:30:26;;;;;;;10.27;2.25;;;;;;;13.51;100.00;101670.34;5093301;28;20077;-76
2024/03/18 09:32:51;;;;;;;7.00;1.85;;;;;;;13.40;100.00;101676.66;5093311;28;20024;-76
2024/03/18 09:35:17;;;;;;;11.18;2.10;;;;;;;13.25;100.00;101676.16;5094311;28;20027;-76
2024/03/18 09:37:42;;;;;;;11.07;2.42;;;;;;;13.06;100.00;101682.28;5093620;28;20028;-76
2024/03/18 09:40:08;;;;;;;10.57;2.40;;;;;;;12.98;100.00;101690.97;5058347;28;20434;-81
2024/03/18 09:42:36;;;;;;;14.15;2.45;;;;;;;13.23;100.00;101684.31;5093466;28;20107;-76
2024/03/18 09:45:01;;;;;;;11.05;2.10;;;;;;;13.47;100.00;101688.50;5093228;28;20069;-77
2024/03/18 09:47:27;;;;;;;9.18;2.22;;;;;;;13.70;100.00;101689.09;5093359;28;20096;-76
2024/03/18 09:49:53;;;;;;;10.43;2.33;;;;;;;13.74;100.00;101695.00;5093163;28;20126;-75
2024/03/18 09:52:21;;;;;;;10.43;1.83;;;;;;;13.83;100.00;101696.00;5093082;28;20061;-76
2024/03/18 09:54:51;;;;;;;16.23;2.33;;;;;;;14.00;100.00;101695.31;5093131;28;20031;-78
2024/03/18 09:57:23;;;;;;;12.48;2.38;;;;;;;14.73;100.00;101681.41;5093004;28;20020;-82
2024/03/18 09:59:49;;;;;;;13.18;3.05;;;;;;;15.89;100.00;101683.63;5093317;28;20069;-76
2024/03/18 10:02:16;;;;;;;8.60;2.22;;;;;;;17.86;100.00;101686.53;5093134;28;20398;-76
2024/03/18 10:04:42;;;;;;;8.52;1.85;;;;;;;18.85;100.00;101692.75;5092927;28;20364;-75
2024/03/18 10:07:17;;;;;;;16.50;2.40;;;;;;;19.18;100.00;101686.38;5093220;28;20024;-76
2024/03/18 10:09:47;;;;;;;10.30;2.25;;;;;;;18.68;100.00;101691.91;5093277;28;20024;-75
2024/03/18 10:12:14;;;;;;;7.55;1.92;;;;;;;18.65;100.00;101694.94;5092920;28;20488;-75
2024/03/18 10:14:40;;;;;;;9.20;2.45;;;;;;;18.86;100.00;101696.28;5092857;28;20494;-75
2024/03/18 10:17:15;;;;;;;8.63;1.83;;;;;;;19.11;100.00;101691.66;5074777;28;20043;-75
2024/03/18 10:19:40;;;;;;;9.88;2.08;;;;;;;18.26;100.00;101700.22;5093506;28;20009;-75
2024/03/18 10:22:10;;;;;;;10.65;1.88;;;;;;;17.31;100.00;101708.59;5096905;28;20452;-77
2024/03/18 10:24:39;;;;;;;11.95;1.95;;;;;;;16.57;100.00;101711.72;5096816;28;20118;-75
2024/03/18 10:27:04;;;;;;;11.85;2.03;;;;;;;15.90;100.00;101706.81;5097136;28;20111;-75
2024/03/18 10:29:30;;;;;;;10.35;2.10;;;;;;;16.83;100.00;101709.00;5096830;28;20020;-76
2024/03/18 10:31:56;;;;;;;10.95;2.50;;;;;;;18.64;100.00;101714.81;5078602;28;20016;-76
2024/03/18 10:34:23;;;;;;;9.15;2.13;;;;;;;20.04;100.00;101705.28;5096949;28;20048;-78
2024/03/18 10:36:58;;;;;;;10.73;2.20;;;;;;;20.58;100.00;101710.53;5097250;28;20034;-75
2024/03/18 10:39:39;;;;;;;14.48;3.15;;;;;;;20.81;100.00;101708.84;5096662;28;20059;-75
2024/03/18 10:42:07;;;;;;;6.90;1.75;;;;;;;21.04;100.00;101717.69;5097073;28;20402;-75
2024/03/18 10:44:38;;;;;;;12.10;1.95;;;;;;;21.72;100.00;101712.09;5096780;28;20400;-75
2024/03/18 10:47:04;;;;;;;;;;;;;;;21.46;98.78;101707.19;5097281;28;20062;-75
2024/03/18 10:49:30;;;;;;;8.63;2.08;;;;;;;21.37;96.71;101720.00;5096398;28;19908;-75
2024/03/18 10:51:56;;;;;;;7.88;1.92;;;;;;;20.58;100.00;101721.34;5078674;28;20048;-76
2024/03/18 10:54:23;;;;;;;7.40;1.75;;;;;;;21.36;96.19;101731.00;5096497;28;20057;-75
2024/03/18 10:56:48;;;;;;;8.20;2.03;;;;;;;20.05;95.41;101724.03;5096568;28;20031;-76
2024/03/18 10:59:16;;;;;;;9.35;1.80;;;;;;;19.71;100.00;101725.22;5096544;28;20023;-76
2024/03/18 11:01:42;;;;;;;7.75;1.80;;;;;;;19.96;95.05;101729.66;5096199;28;20148;-76
2024/03/18 11:04:28;;;;;;;7.28;1.67;;;;;;;20.50;92.91;101724.16;5077996;28;20421;-75
2024/03/18 11:06:57;;;;;;;9.07;1.52;;;;;;;21.09;90.03;101730.66;5079743;28;20024;-75
2024/03/18 11:09:24;;;;;;;6.30;1.45;;;;;;;21.38;89.20;101734.34;5096028;28;20028;-75